Decoded Metar for CYSF (STONY RAPIDS in SK, CANADA) (IATA:YSF) | Meteo·Mobile Aviation Weather
aviador You're here:

CYSF Decoded Metar

STONY RAPIDS in SK, CANADA
Report Time2018-09-26 04:00:00
UTC Time2018-09-26 05:03:47
Flight Rules vfr VFR
Wind080° at 07 kt
W.Decomp.*RWY 06: 6.9 kt HW 1.1 kt RCW
W.Rank080° ranks 2
Current wind is above 080° avg. (6.5)
Visibility9999 m
Phenomena:N/A
Clouds:Few 110 Hf
Expected CloudBase > 1,200 ft AGL from Temp-Dew spread
CeilingNone
Temp01°C (ISA -12)
Dew Point-2°C (81% RH)
AAT-3.8°C
QNH1009 hPa
Density Alt-472 ft
Elevation820 ft
Report Wrong Elevation
Raw Report
CYSF 260400Z AUTO 08007KT 9SM FEW110 01/M02 A2979 RMK SLP104=

Extra information for CYSF:More info

Metar Taf Metar & Taf Last 4 Metars F.Rules Stats Wind Profile Meteogram Temp Stats Airport Information Weather charts Add Link Nearby VenuesMetar ALERT Operation Metar Decoded Social comments